sensor_id;sensor_type;location;lat;lon;timestamp;P1;durP1;ratioP1;P2;durP2;ratioP2
69998;SDS011;57339;52.156;5.372;2023-10-19T00:01:53;35.20;;;17.10;;
69998;SDS011;57339;52.156;5.372;2023-10-19T00:04:20;37.13;;;18.07;;
69998;SDS011;57339;52.156;5.372;2023-10-19T00:06:47;36.10;;;18.50;;
69998;SDS011;57339;52.156;5.372;2023-10-19T00:09:14;37.50;;;18.90;;
69998;SDS011;57339;52.156;5.372;2023-10-19T00:11:41;39.83;;;19.13;;
69998;SDS011;57339;52.156;5.372;2023-10-19T00:14:08;37.67;;;18.33;;
69998;SDS011;57339;52.156;5.372;2023-10-19T00:16:35;41.03;;;19.47;;
69998;SDS011;57339;52.156;5.372;2023-10-19T00:19:02;43.83;;;20.27;;
69998;SDS011;57339;52.156;5.372;2023-10-19T00:21:30;40.22;;;18.83;;
69998;SDS011;57339;52.156;5.372;2023-10-19T00:23:57;42.65;;;20.38;;
69998;SDS011;57339;52.156;5.372;2023-10-19T00:26:25;39.08;;;19.75;;
69998;SDS011;57339;52.156;5.372;2023-10-19T00:28:53;41.47;;;19.93;;
69998;SDS011;57339;52.156;5.372;2023-10-19T00:31:20;45.13;;;21.58;;
69998;SDS011;57339;52.156;5.372;2023-10-19T00:33:47;48.58;;;21.88;;
69998;SDS011;57339;52.156;5.372;2023-10-19T00:36:15;45.80;;;21.52;;
69998;SDS011;57339;52.156;5.372;2023-10-19T00:38:42;44.13;;;21.17;;
69998;SDS011;57339;52.156;5.372;2023-10-19T00:41:09;45.97;;;20.60;;
69998;SDS011;57339;52.156;5.372;2023-10-19T00:43:37;44.03;;;21.27;;
69998;SDS011;57339;52.156;5.372;2023-10-19T00:46:05;46.63;;;22.38;;
69998;SDS011;57339;52.156;5.372;2023-10-19T00:48:32;44.05;;;21.95;;
69998;SDS011;57339;52.156;5.372;2023-10-19T00:51:00;48.53;;;22.25;;
69998;SDS011;57339;52.156;5.372;2023-10-19T00:53:30;49.37;;;21.93;;
69998;SDS011;57339;52.156;5.372;2023-10-19T00:55:57;48.13;;;22.42;;
69998;SDS011;57339;52.156;5.372;2023-10-19T00:58:23;49.08;;;22.60;;
69998;SDS011;57339;52.156;5.372;2023-10-19T01:00:50;48.72;;;23.50;;
69998;SDS011;57339;52.156;5.372;2023-10-19T01:03:17;48.95;;;23.70;;
69998;SDS011;57339;52.156;5.372;2023-10-19T01:05:45;50.83;;;23.97;;
69998;SDS011;57339;52.156;5.372;2023-10-19T01:08:11;54.30;;;23.67;;
69998;SDS011;57339;52.156;5.372;2023-10-19T01:10:39;52.38;;;24.00;;
69998;SDS011;57339;52.156;5.372;2023-10-19T01:13:06;54.80;;;24.05;;
69998;SDS011;57339;52.156;5.372;2023-10-19T01:15:33;51.78;;;24.45;;
69998;SDS011;57339;52.156;5.372;2023-10-19T01:18:00;54.13;;;23.07;;
69998;SDS011;57339;52.156;5.372;2023-10-19T01:20:31;53.88;;;25.08;;
69998;SDS011;57339;52.156;5.372;2023-10-19T01:23:06;55.85;;;25.23;;
69998;SDS011;57339;52.156;5.372;2023-10-19T01:28:15;59.83;;;26.65;;
69998;SDS011;57339;52.156;5.372;2023-10-19T01:30:44;61.87;;;26.67;;
69998;SDS011;57339;52.156;5.372;2023-10-19T01:33:11;57.78;;;26.50;;
69998;SDS011;57339;52.156;5.372;2023-10-19T01:35:38;65.32;;;27.85;;
69998;SDS011;57339;52.156;5.372;2023-10-19T01:38:06;58.90;;;26.08;;
69998;SDS011;57339;52.156;5.372;2023-10-19T01:40:33;64.18;;;26.75;;
69998;SDS011;57339;52.156;5.372;2023-10-19T01:43:00;64.57;;;28.40;;
69998;SDS011;57339;52.156;5.372;2023-10-19T01:45:27;57.60;;;25.88;;
69998;SDS011;57339;52.156;5.372;2023-10-19T01:47:54;60.42;;;27.73;;
69998;SDS011;57339;52.156;5.372;2023-10-19T01:50:21;65.00;;;27.90;;
69998;SDS011;57339;52.156;5.372;2023-10-19T01:52:48;67.53;;;29.13;;
69998;SDS011;57339;52.156;5.372;2023-10-19T01:55:15;63.67;;;28.30;;
69998;SDS011;57339;52.156;5.372;2023-10-19T01:57:42;67.72;;;27.73;;
69998;SDS011;57339;52.156;5.372;2023-10-19T02:00:09;70.65;;;30.92;;
69998;SDS011;57339;52.156;5.372;2023-10-19T02:02:36;74.82;;;28.80;;
69998;SDS011;57339;52.156;5.372;2023-10-19T02:05:03;69.03;;;29.83;;
69998;SDS011;57339;52.156;5.372;2023-10-19T02:07:31;74.23;;;31.30;;
69998;SDS011;57339;52.156;5.372;2023-10-19T02:09:58;65.68;;;28.63;;
69998;SDS011;57339;52.156;5.372;2023-10-19T02:12:25;69.07;;;29.90;;
69998;SDS011;57339;52.156;5.372;2023-10-19T02:14:52;71.05;;;30.33;;
69998;SDS011;57339;52.156;5.372;2023-10-19T02:17:18;73.22;;;30.58;;
69998;SDS011;57339;52.156;5.372;2023-10-19T02:19:46;74.07;;;29.63;;
69998;SDS011;57339;52.156;5.372;2023-10-19T02:22:13;77.03;;;30.02;;
69998;SDS011;57339;52.156;5.372;2023-10-19T02:24:40;76.70;;;30.45;;
69998;SDS011;57339;52.156;5.372;2023-10-19T02:27:07;74.57;;;29.58;;
69998;SDS011;57339;52.156;5.372;2023-10-19T02:29:39;76.63;;;30.08;;
69998;SDS011;57339;52.156;5.372;2023-10-19T02:32:05;79.13;;;30.50;;
69998;SDS011;57339;52.156;5.372;2023-10-19T02:34:32;73.13;;;29.05;;
69998;SDS011;57339;52.156;5.372;2023-10-19T02:37:01;74.82;;;29.30;;
69998;SDS011;57339;52.156;5.372;2023-10-19T02:39:27;81.93;;;29.60;;
69998;SDS011;57339;52.156;5.372;2023-10-19T02:41:55;71.60;;;28.65;;
69998;SDS011;57339;52.156;5.372;2023-10-19T02:44:22;72.80;;;28.27;;
69998;SDS011;57339;52.156;5.372;2023-10-19T02:46:50;66.90;;;27.83;;
69998;SDS011;57339;52.156;5.372;2023-10-19T02:49:19;73.80;;;28.63;;
69998;SDS011;57339;52.156;5.372;2023-10-19T02:51:47;70.72;;;27.75;;
69998;SDS011;57339;52.156;5.372;2023-10-19T02:54:16;70.32;;;26.98;;
69998;SDS011;57339;52.156;5.372;2023-10-19T02:56:45;69.17;;;26.30;;
69998;SDS011;57339;52.156;5.372;2023-10-19T02:59:17;66.15;;;26.23;;
69998;SDS011;57339;52.156;5.372;2023-10-19T03:01:44;67.50;;;26.73;;
69998;SDS011;57339;52.156;5.372;2023-10-19T03:04:11;67.30;;;26.45;;
69998;SDS011;57339;52.156;5.372;2023-10-19T03:06:38;59.85;;;25.85;;
69998;SDS011;57339;52.156;5.372;2023-10-19T03:09:05;68.30;;;26.93;;
69998;SDS011;57339;52.156;5.372;2023-10-19T03:11:33;67.95;;;26.58;;
69998;SDS011;57339;52.156;5.372;2023-10-19T03:14:00;72.60;;;26.75;;
69998;SDS011;57339;52.156;5.372;2023-10-19T03:16:27;61.13;;;24.60;;
69998;SDS011;57339;52.156;5.372;2023-10-19T03:18:54;69.75;;;26.20;;
69998;SDS011;57339;52.156;5.372;2023-10-19T03:21:21;71.33;;;25.40;;
69998;SDS011;57339;52.156;5.372;2023-10-19T03:23:48;61.90;;;24.52;;
69998;SDS011;57339;52.156;5.372;2023-10-19T03:26:15;65.15;;;24.73;;
69998;SDS011;57339;52.156;5.372;2023-10-19T03:28:42;67.63;;;24.33;;
69998;SDS011;57339;52.156;5.372;2023-10-19T03:31:09;58.70;;;23.50;;
69998;SDS011;57339;52.156;5.372;2023-10-19T03:33:35;59.10;;;22.17;;
69998;SDS011;57339;52.156;5.372;2023-10-19T03:36:03;58.33;;;23.63;;
69998;SDS011;57339;52.156;5.372;2023-10-19T03:38:30;61.40;;;23.88;;
69998;SDS011;57339;52.156;5.372;2023-10-19T03:40:57;63.22;;;23.38;;
69998;SDS011;57339;52.156;5.372;2023-10-19T03:43:24;63.50;;;23.70;;
69998;SDS011;57339;52.156;5.372;2023-10-19T03:45:50;60.40;;;22.63;;
69998;SDS011;57339;52.156;5.372;2023-10-19T03:48:20;57.67;;;22.80;;
69998;SDS011;57339;52.156;5.372;2023-10-19T03:50:49;63.30;;;23.35;;
69998;SDS011;57339;52.156;5.372;2023-10-19T03:53:16;55.53;;;21.85;;
69998;SDS011;57339;52.156;5.372;2023-10-19T03:55:43;62.28;;;21.73;;
69998;SDS011;57339;52.156;5.372;2023-10-19T03:58:10;52.67;;;21.33;;
69998;SDS011;57339;52.156;5.372;2023-10-19T04:00:37;56.67;;;21.05;;
69998;SDS011;57339;52.156;5.372;2023-10-19T04:03:05;59.10;;;20.92;;
69998;SDS011;57339;52.156;5.372;2023-10-19T04:05:32;50.00;;;20.30;;
69998;SDS011;57339;52.156;5.372;2023-10-19T04:07:58;58.45;;;21.55;;
69998;SDS011;57339;52.156;5.372;2023-10-19T04:10:25;51.23;;;20.43;;
69998;SDS011;57339;52.156;5.372;2023-10-19T04:12:52;55.35;;;20.42;;
69998;SDS011;57339;52.156;5.372;2023-10-19T04:15:19;45.63;;;18.48;;
69998;SDS011;57339;52.156;5.372;2023-10-19T04:17:46;52.35;;;19.08;;
69998;SDS011;57339;52.156;5.372;2023-10-19T04:20:15;51.30;;;18.45;;
69998;SDS011;57339;52.156;5.372;2023-10-19T04:22:44;44.03;;;17.80;;
69998;SDS011;57339;52.156;5.372;2023-10-19T04:25:15;40.45;;;16.80;;
69998;SDS011;57339;52.156;5.372;2023-10-19T04:27:43;41.95;;;16.85;;
69998;SDS011;57339;52.156;5.372;2023-10-19T04:30:11;39.92;;;15.80;;
69998;SDS011;57339;52.156;5.372;2023-10-19T04:32:39;39.10;;;15.23;;
69998;SDS011;57339;52.156;5.372;2023-10-19T04:35:06;34.17;;;14.93;;
69998;SDS011;57339;52.156;5.372;2023-10-19T04:37:32;31.20;;;13.57;;
69998;SDS011;57339;52.156;5.372;2023-10-19T04:40:00;31.13;;;13.30;;
69998;SDS011;57339;52.156;5.372;2023-10-19T04:42:27;26.52;;;11.75;;
69998;SDS011;57339;52.156;5.372;2023-10-19T04:44:54;25.23;;;10.88;;
69998;SDS011;57339;52.156;5.372;2023-10-19T04:47:21;22.80;;;10.87;;
69998;SDS011;57339;52.156;5.372;2023-10-19T04:49:51;25.58;;;10.52;;
69998;SDS011;57339;52.156;5.372;2023-10-19T04:52:19;22.58;;;8.85;;
69998;SDS011;57339;52.156;5.372;2023-10-19T04:54:46;21.55;;;8.60;;
69998;SDS011;57339;52.156;5.372;2023-10-19T04:57:12;19.67;;;7.57;;
69998;SDS011;57339;52.156;5.372;2023-10-19T04:59:39;18.60;;;7.60;;
69998;SDS011;57339;52.156;5.372;2023-10-19T05:02:06;18.48;;;6.70;;
69998;SDS011;57339;52.156;5.372;2023-10-19T05:04:33;18.38;;;6.47;;
69998;SDS011;57339;52.156;5.372;2023-10-19T05:07:00;17.85;;;5.80;;
69998;SDS011;57339;52.156;5.372;2023-10-19T05:09:27;18.42;;;6.88;;
69998;SDS011;57339;52.156;5.372;2023-10-19T05:11:54;20.90;;;6.40;;
69998;SDS011;57339;52.156;5.372;2023-10-19T05:14:21;15.25;;;6.22;;
69998;SDS011;57339;52.156;5.372;2023-10-19T05:16:48;15.77;;;6.45;;
69998;SDS011;57339;52.156;5.372;2023-10-19T05:19:15;16.95;;;6.00;;
69998;SDS011;57339;52.156;5.372;2023-10-19T05:21:42;15.45;;;5.88;;
69998;SDS011;57339;52.156;5.372;2023-10-19T05:24:09;14.63;;;5.60;;
69998;SDS011;57339;52.156;5.372;2023-10-19T05:26:36;13.88;;;5.30;;
69998;SDS011;57339;52.156;5.372;2023-10-19T05:29:03;14.13;;;4.85;;
69998;SDS011;57339;52.156;5.372;2023-10-19T05:31:30;13.95;;;5.20;;
69998;SDS011;57339;52.156;5.372;2023-10-19T05:33:57;12.90;;;4.80;;
69998;SDS011;57339;52.156;5.372;2023-10-19T05:36:24;12.87;;;4.27;;
69998;SDS011;57339;52.156;5.372;2023-10-19T05:38:51;14.65;;;4.38;;
69998;SDS011;57339;52.156;5.372;2023-10-19T05:41:18;15.43;;;4.35;;
69998;SDS011;57339;52.156;5.372;2023-10-19T05:43:45;13.07;;;3.97;;
69998;SDS011;57339;52.156;5.372;2023-10-19T05:46:12;16.08;;;4.40;;
69998;SDS011;57339;52.156;5.372;2023-10-19T05:48:39;15.97;;;4.90;;
69998;SDS011;57339;52.156;5.372;2023-10-19T05:51:05;11.57;;;4.47;;
69998;SDS011;57339;52.156;5.372;2023-10-19T05:53:32;10.45;;;4.03;;
69998;SDS011;57339;52.156;5.372;2023-10-19T05:56:00;11.18;;;3.88;;
69998;SDS011;57339;52.156;5.372;2023-10-19T05:58:27;11.82;;;3.55;;
69998;SDS011;57339;52.156;5.372;2023-10-19T06:00:57;13.03;;;3.90;;
69998;SDS011;57339;52.156;5.372;2023-10-19T06:03:27;14.38;;;3.60;;
69998;SDS011;57339;52.156;5.372;2023-10-19T06:05:55;13.70;;;3.53;;
69998;SDS011;57339;52.156;5.372;2023-10-19T06:08:22;12.35;;;3.50;;
69998;SDS011;57339;52.156;5.372;2023-10-19T06:10:52;13.32;;;3.55;;
69998;SDS011;57339;52.156;5.372;2023-10-19T06:13:20;17.00;;;4.03;;
69998;SDS011;57339;52.156;5.372;2023-10-19T06:15:50;11.95;;;3.65;;
69998;SDS011;57339;52.156;5.372;2023-10-19T06:18:17;11.40;;;3.88;;
69998;SDS011;57339;52.156;5.372;2023-10-19T06:20:44;13.40;;;3.72;;
69998;SDS011;57339;52.156;5.372;2023-10-19T06:23:11;15.40;;;4.43;;
69998;SDS011;57339;52.156;5.372;2023-10-19T06:25:38;16.73;;;3.63;;
69998;SDS011;57339;52.156;5.372;2023-10-19T06:28:05;11.63;;;3.40;;
69998;SDS011;57339;52.156;5.372;2023-10-19T06:30:32;13.10;;;3.60;;
69998;SDS011;57339;52.156;5.372;2023-10-19T06:33:00;13.52;;;3.70;;
69998;SDS011;57339;52.156;5.372;2023-10-19T06:35:28;11.82;;;3.40;;
69998;SDS011;57339;52.156;5.372;2023-10-19T06:37:57;14.87;;;3.60;;
69998;SDS011;57339;52.156;5.372;2023-10-19T06:40:24;14.43;;;3.53;;
69998;SDS011;57339;52.156;5.372;2023-10-19T06:42:52;11.95;;;3.47;;
69998;SDS011;57339;52.156;5.372;2023-10-19T06:45:21;12.15;;;3.22;;
69998;SDS011;57339;52.156;5.372;2023-10-19T06:47:49;11.10;;;3.22;;
69998;SDS011;57339;52.156;5.372;2023-10-19T06:50:17;11.50;;;3.40;;
69998;SDS011;57339;52.156;5.372;2023-10-19T06:52:46;13.88;;;3.80;;
69998;SDS011;57339;52.156;5.372;2023-10-19T06:55:14;13.65;;;4.05;;
69998;SDS011;57339;52.156;5.372;2023-10-19T06:57:42;13.40;;;3.67;;
69998;SDS011;57339;52.156;5.372;2023-10-19T07:00:13;16.70;;;4.05;;
69998;SDS011;57339;52.156;5.372;2023-10-19T07:02:42;19.17;;;4.20;;
69998;SDS011;57339;52.156;5.372;2023-10-19T07:05:10;17.13;;;4.32;;
69998;SDS011;57339;52.156;5.372;2023-10-19T07:07:38;13.65;;;4.35;;
69998;SDS011;57339;52.156;5.372;2023-10-19T07:10:08;11.88;;;3.63;;
69998;SDS011;57339;52.156;5.372;2023-10-19T07:12:36;12.70;;;4.30;;
69998;SDS011;57339;52.156;5.372;2023-10-19T07:15:04;11.90;;;4.13;;
69998;SDS011;57339;52.156;5.372;2023-10-19T07:17:32;16.80;;;4.22;;
69998;SDS011;57339;52.156;5.372;2023-10-19T07:20:02;13.20;;;4.30;;
69998;SDS011;57339;52.156;5.372;2023-10-19T07:22:29;15.70;;;4.00;;
69998;SDS011;57339;52.156;5.372;2023-10-19T07:24:56;13.35;;;3.95;;
69998;SDS011;57339;52.156;5.372;2023-10-19T07:27:22;14.93;;;3.93;;
69998;SDS011;57339;52.156;5.372;2023-10-19T07:30:02;16.48;;;3.85;;
69998;SDS011;57339;52.156;5.372;2023-10-19T07:32:30;14.38;;;4.32;;
69998;SDS011;57339;52.156;5.372;2023-10-19T07:34:57;18.38;;;4.13;;
69998;SDS011;57339;52.156;5.372;2023-10-19T07:37:24;16.70;;;4.15;;
69998;SDS011;57339;52.156;5.372;2023-10-19T07:39:51;15.97;;;4.70;;
69998;SDS011;57339;52.156;5.372;2023-10-19T07:42:19;11.93;;;4.07;;
69998;SDS011;57339;52.156;5.372;2023-10-19T07:44:46;13.70;;;4.18;;
69998;SDS011;57339;52.156;5.372;2023-10-19T07:47:13;15.05;;;4.30;;
69998;SDS011;57339;52.156;5.372;2023-10-19T07:49:40;15.77;;;4.47;;
69998;SDS011;57339;52.156;5.372;2023-10-19T07:52:07;15.73;;;5.50;;
69998;SDS011;57339;52.156;5.372;2023-10-19T07:54:34;17.98;;;4.90;;
69998;SDS011;57339;52.156;5.372;2023-10-19T07:57:02;14.45;;;4.35;;
69998;SDS011;57339;52.156;5.372;2023-10-19T07:59:30;16.30;;;4.72;;
69998;SDS011;57339;52.156;5.372;2023-10-19T08:01:57;15.57;;;3.97;;
69998;SDS011;57339;52.156;5.372;2023-10-19T08:04:24;15.20;;;4.60;;
69998;SDS011;57339;52.156;5.372;2023-10-19T08:06:51;18.30;;;4.60;;
69998;SDS011;57339;52.156;5.372;2023-10-19T08:09:18;14.68;;;4.45;;
69998;SDS011;57339;52.156;5.372;2023-10-19T08:11:45;14.68;;;4.13;;
69998;SDS011;57339;52.156;5.372;2023-10-19T08:14:12;14.93;;;4.00;;
69998;SDS011;57339;52.156;5.372;2023-10-19T08:16:39;14.03;;;4.40;;
69998;SDS011;57339;52.156;5.372;2023-10-19T08:19:07;13.20;;;4.25;;
69998;SDS011;57339;52.156;5.372;2023-10-19T08:21:36;14.00;;;3.80;;
69998;SDS011;57339;52.156;5.372;2023-10-19T08:24:04;12.38;;;4.18;;
69998;SDS011;57339;52.156;5.372;2023-10-19T08:26:31;13.68;;;4.20;;
69998;SDS011;57339;52.156;5.372;2023-10-19T08:28:58;14.07;;;3.87;;
69998;SDS011;57339;52.156;5.372;2023-10-19T08:31:25;17.08;;;4.85;;
69998;SDS011;57339;52.156;5.372;2023-10-19T08:33:52;13.27;;;3.92;;
69998;SDS011;57339;52.156;5.372;2023-10-19T08:36:20;17.27;;;4.32;;
69998;SDS011;57339;52.156;5.372;2023-10-19T08:38:47;16.08;;;4.35;;
69998;SDS011;57339;52.156;5.372;2023-10-19T08:41:14;14.23;;;3.80;;
69998;SDS011;57339;52.156;5.372;2023-10-19T08:43:42;13.13;;;3.67;;
69998;SDS011;57339;52.156;5.372;2023-10-19T08:46:09;14.95;;;4.43;;
69998;SDS011;57339;52.156;5.372;2023-10-19T08:48:37;15.13;;;4.13;;
69998;SDS011;57339;52.156;5.372;2023-10-19T08:51:08;16.83;;;4.18;;
69998;SDS011;57339;52.156;5.372;2023-10-19T08:53:36;10.83;;;3.93;;
69998;SDS011;57339;52.156;5.372;2023-10-19T08:56:05;11.30;;;3.50;;
69998;SDS011;57339;52.156;5.372;2023-10-19T08:58:33;13.25;;;3.70;;
69998;SDS011;57339;52.156;5.372;2023-10-19T09:01:01;12.27;;;4.15;;
69998;SDS011;57339;52.156;5.372;2023-10-19T09:03:28;14.38;;;5.00;;
69998;SDS011;57339;52.156;5.372;2023-10-19T09:05:55;19.10;;;5.30;;
69998;SDS011;57339;52.156;5.372;2023-10-19T09:08:22;18.65;;;5.18;;
69998;SDS011;57339;52.156;5.372;2023-10-19T09:10:50;17.20;;;4.88;;
69998;SDS011;57339;52.156;5.372;2023-10-19T09:13:17;16.90;;;4.97;;
69998;SDS011;57339;52.156;5.372;2023-10-19T09:15:44;14.60;;;5.05;;
69998;SDS011;57339;52.156;5.372;2023-10-19T09:18:14;15.13;;;4.80;;
69998;SDS011;57339;52.156;5.372;2023-10-19T09:20:43;14.20;;;4.82;;
69998;SDS011;57339;52.156;5.372;2023-10-19T09:23:12;15.70;;;4.65;;
69998;SDS011;57339;52.156;5.372;2023-10-19T09:25:39;13.57;;;4.88;;
69998;SDS011;57339;52.156;5.372;2023-10-19T09:28:06;13.30;;;4.55;;
69998;SDS011;57339;52.156;5.372;2023-10-19T09:30:33;15.03;;;5.00;;
69998;SDS011;57339;52.156;5.372;2023-10-19T09:33:00;14.75;;;4.63;;
69998;SDS011;57339;52.156;5.372;2023-10-19T09:35:28;17.27;;;4.65;;
69998;SDS011;57339;52.156;5.372;2023-10-19T09:37:55;13.40;;;4.18;;
69998;SDS011;57339;52.156;5.372;2023-10-19T09:40:22;20.40;;;4.38;;
69998;SDS011;57339;52.156;5.372;2023-10-19T09:42:49;13.70;;;4.47;;
69998;SDS011;57339;52.156;5.372;2023-10-19T09:45:19;14.27;;;4.50;;
69998;SDS011;57339;52.156;5.372;2023-10-19T09:47:49;13.75;;;4.63;;
69998;SDS011;57339;52.156;5.372;2023-10-19T09:50:17;13.57;;;4.72;;
69998;SDS011;57339;52.156;5.372;2023-10-19T09:52:44;13.32;;;4.40;;
69998;SDS011;57339;52.156;5.372;2023-10-19T09:58:06;15.65;;;4.97;;
69998;SDS011;57339;52.156;5.372;2023-10-19T10:00:45;11.73;;;4.13;;
69998;SDS011;57339;52.156;5.372;2023-10-19T10:06:10;14.27;;;4.13;;
69998;SDS011;57339;52.156;5.372;2023-10-19T10:08:44;16.23;;;3.97;;
69998;SDS011;57339;52.156;5.372;2023-10-19T10:11:22;14.07;;;4.05;;
69998;SDS011;57339;52.156;5.372;2023-10-19T10:13:54;14.43;;;3.80;;
69998;SDS011;57339;52.156;5.372;2023-10-19T10:16:23;13.20;;;4.05;;
69998;SDS011;57339;52.156;5.372;2023-10-19T10:18:55;15.52;;;4.38;;
69998;SDS011;57339;52.156;5.372;2023-10-19T10:21:29;12.97;;;4.43;;
69998;SDS011;57339;52.156;5.372;2023-10-19T10:23:57;15.73;;;4.32;;
69998;SDS011;57339;52.156;5.372;2023-10-19T10:26:26;14.65;;;4.70;;
69998;SDS011;57339;52.156;5.372;2023-10-19T10:31:46;16.38;;;5.60;;
69998;SDS011;57339;52.156;5.372;2023-10-19T10:34:41;19.00;;;4.70;;
69998;SDS011;57339;52.156;5.372;2023-10-19T10:37:09;14.07;;;4.47;;
69998;SDS011;57339;52.156;5.372;2023-10-19T10:39:38;19.50;;;5.20;;
69998;SDS011;57339;52.156;5.372;2023-10-19T10:42:07;16.15;;;4.20;;
69998;SDS011;57339;52.156;5.372;2023-10-19T10:47:22;18.03;;;4.67;;
69998;SDS011;57339;52.156;5.372;2023-10-19T10:52:30;19.80;;;7.78;;
69998;SDS011;57339;52.156;5.372;2023-10-19T10:55:06;16.75;;;4.30;;
69998;SDS011;57339;52.156;5.372;2023-10-19T10:57:35;14.57;;;4.30;;
69998;SDS011;57339;52.156;5.372;2023-10-19T11:02:29;16.58;;;5.03;;
69998;SDS011;57339;52.156;5.372;2023-10-19T11:04:56;16.65;;;4.53;;
69998;SDS011;57339;52.156;5.372;2023-10-19T11:07:23;16.55;;;4.18;;
69998;SDS011;57339;52.156;5.372;2023-10-19T11:09:50;16.58;;;4.10;;
69998;SDS011;57339;52.156;5.372;2023-10-19T11:12:17;14.10;;;4.30;;
69998;SDS011;57339;52.156;5.372;2023-10-19T11:14:57;15.95;;;3.97;;
69998;SDS011;57339;52.156;5.372;2023-10-19T11:17:25;16.50;;;4.22;;
69998;SDS011;57339;52.156;5.372;2023-10-19T11:19:55;13.60;;;3.92;;
69998;SDS011;57339;52.156;5.372;2023-10-19T11:22:23;21.88;;;4.30;;
69998;SDS011;57339;52.156;5.372;2023-10-19T11:24:53;15.83;;;3.90;;
69998;SDS011;57339;52.156;5.372;2023-10-19T11:27:24;13.00;;;3.60;;
69998;SDS011;57339;52.156;5.372;2023-10-19T11:29:57;15.63;;;3.72;;
69998;SDS011;57339;52.156;5.372;2023-10-19T11:32:25;15.68;;;3.70;;
69998;SDS011;57339;52.156;5.372;2023-10-19T11:34:53;13.98;;;3.72;;
69998;SDS011;57339;52.156;5.372;2023-10-19T11:37:21;14.17;;;3.67;;
69998;SDS011;57339;52.156;5.372;2023-10-19T11:39:48;16.55;;;3.80;;
69998;SDS011;57339;52.156;5.372;2023-10-19T11:42:15;12.02;;;3.78;;
69998;SDS011;57339;52.156;5.372;2023-10-19T11:44:43;15.02;;;3.80;;
69998;SDS011;57339;52.156;5.372;2023-10-19T11:47:11;13.48;;;3.85;;
69998;SDS011;57339;52.156;5.372;2023-10-19T11:49:38;12.87;;;3.90;;
69998;SDS011;57339;52.156;5.372;2023-10-19T11:52:05;14.52;;;3.40;;
69998;SDS011;57339;52.156;5.372;2023-10-19T11:54:33;13.35;;;3.08;;
69998;SDS011;57339;52.156;5.372;2023-10-19T11:57:05;17.30;;;3.42;;
69998;SDS011;57339;52.156;5.372;2023-10-19T11:59:32;16.38;;;3.22;;
69998;SDS011;57339;52.156;5.372;2023-10-19T12:01:59;13.43;;;2.93;;
69998;SDS011;57339;52.156;5.372;2023-10-19T12:04:26;12.95;;;2.90;;
69998;SDS011;57339;52.156;5.372;2023-10-19T12:06:53;13.43;;;2.88;;
69998;SDS011;57339;52.156;5.372;2023-10-19T12:09:20;12.52;;;2.70;;
69998;SDS011;57339;52.156;5.372;2023-10-19T12:11:47;20.65;;;3.63;;
69998;SDS011;57339;52.156;5.372;2023-10-19T12:14:14;16.20;;;3.00;;
69998;SDS011;57339;52.156;5.372;2023-10-19T12:16:41;15.27;;;3.67;;
69998;SDS011;57339;52.156;5.372;2023-10-19T12:19:08;12.45;;;2.85;;
69998;SDS011;57339;52.156;5.372;2023-10-19T12:21:35;14.50;;;3.38;;
69998;SDS011;57339;52.156;5.372;2023-10-19T12:24:04;12.20;;;3.05;;
69998;SDS011;57339;52.156;5.372;2023-10-19T12:26:32;13.27;;;2.80;;
69998;SDS011;57339;52.156;5.372;2023-10-19T12:28:59;14.30;;;3.28;;
69998;SDS011;57339;52.156;5.372;2023-10-19T12:31:26;14.88;;;3.25;;
69998;SDS011;57339;52.156;5.372;2023-10-19T12:33:53;13.45;;;3.30;;
69998;SDS011;57339;52.156;5.372;2023-10-19T12:36:20;13.23;;;2.72;;
69998;SDS011;57339;52.156;5.372;2023-10-19T12:38:47;13.67;;;2.80;;
69998;SDS011;57339;52.156;5.372;2023-10-19T12:41:14;14.20;;;2.95;;
69998;SDS011;57339;52.156;5.372;2023-10-19T12:43:41;17.83;;;3.30;;
69998;SDS011;57339;52.156;5.372;2023-10-19T12:46:08;13.68;;;3.15;;
69998;SDS011;57339;52.156;5.372;2023-10-19T12:48:35;17.00;;;3.70;;
69998;SDS011;57339;52.156;5.372;2023-10-19T12:51:02;16.07;;;4.20;;
69998;SDS011;57339;52.156;5.372;2023-10-19T12:53:31;14.65;;;2.72;;
69998;SDS011;57339;52.156;5.372;2023-10-19T12:55:57;12.75;;;2.97;;
69998;SDS011;57339;52.156;5.372;2023-10-19T12:58:25;13.07;;;3.05;;
69998;SDS011;57339;52.156;5.372;2023-10-19T13:00:52;11.07;;;2.75;;
69998;SDS011;57339;52.156;5.372;2023-10-19T13:03:18;14.23;;;3.20;;
69998;SDS011;57339;52.156;5.372;2023-10-19T13:05:45;13.38;;;3.08;;
69998;SDS011;57339;52.156;5.372;2023-10-19T13:08:13;16.20;;;2.90;;
69998;SDS011;57339;52.156;5.372;2023-10-19T13:10:41;15.38;;;3.55;;
69998;SDS011;57339;52.156;5.372;2023-10-19T13:13:09;16.38;;;3.17;;
69998;SDS011;57339;52.156;5.372;2023-10-19T13:15:38;18.47;;;3.23;;
69998;SDS011;57339;52.156;5.372;2023-10-19T13:18:06;16.67;;;3.75;;
69998;SDS011;57339;52.156;5.372;2023-10-19T13:20:34;14.90;;;3.67;;
69998;SDS011;57339;52.156;5.372;2023-10-19T13:23:03;14.63;;;3.70;;
69998;SDS011;57339;52.156;5.372;2023-10-19T13:25:30;16.75;;;3.67;;
69998;SDS011;57339;52.156;5.372;2023-10-19T13:27:58;16.17;;;3.53;;
69998;SDS011;57339;52.156;5.372;2023-10-19T13:30:25;16.88;;;3.97;;
69998;SDS011;57339;52.156;5.372;2023-10-19T13:32:52;14.43;;;3.60;;
69998;SDS011;57339;52.156;5.372;2023-10-19T13:35:19;13.40;;;3.50;;
69998;SDS011;57339;52.156;5.372;2023-10-19T13:37:46;15.85;;;3.92;;
69998;SDS011;57339;52.156;5.372;2023-10-19T13:40:13;15.90;;;3.63;;
69998;SDS011;57339;52.156;5.372;2023-10-19T13:42:40;17.52;;;4.20;;
69998;SDS011;57339;52.156;5.372;2023-10-19T13:45:07;16.17;;;4.05;;
69998;SDS011;57339;52.156;5.372;2023-10-19T13:47:35;16.65;;;4.35;;
69998;SDS011;57339;52.156;5.372;2023-10-19T13:50:01;14.57;;;3.97;;
69998;SDS011;57339;52.156;5.372;2023-10-19T13:52:28;17.73;;;4.80;;
69998;SDS011;57339;52.156;5.372;2023-10-19T13:54:55;17.85;;;4.63;;
69998;SDS011;57339;52.156;5.372;2023-10-19T13:57:22;16.17;;;4.07;;
69998;SDS011;57339;52.156;5.372;2023-10-19T13:59:49;14.90;;;4.30;;
69998;SDS011;57339;52.156;5.372;2023-10-19T14:02:16;15.68;;;4.20;;
69998;SDS011;57339;52.156;5.372;2023-10-19T14:04:43;15.93;;;4.13;;
69998;SDS011;57339;52.156;5.372;2023-10-19T14:07:10;20.25;;;5.05;;
69998;SDS011;57339;52.156;5.372;2023-10-19T14:09:37;17.40;;;4.57;;
69998;SDS011;57339;52.156;5.372;2023-10-19T14:12:04;19.83;;;4.80;;
69998;SDS011;57339;52.156;5.372;2023-10-19T14:14:32;18.80;;;4.53;;
69998;SDS011;57339;52.156;5.372;2023-10-19T14:16:59;18.10;;;4.13;;
69998;SDS011;57339;52.156;5.372;2023-10-19T14:19:26;17.67;;;4.90;;
69998;SDS011;57339;52.156;5.372;2023-10-19T14:21:53;16.75;;;4.30;;
69998;SDS011;57339;52.156;5.372;2023-10-19T14:24:20;14.68;;;4.18;;
69998;SDS011;57339;52.156;5.372;2023-10-19T14:26:46;19.75;;;4.55;;
69998;SDS011;57339;52.156;5.372;2023-10-19T14:29:13;17.27;;;4.57;;
69998;SDS011;57339;52.156;5.372;2023-10-19T14:31:40;20.48;;;8.88;;
69998;SDS011;57339;52.156;5.372;2023-10-19T14:34:07;18.55;;;5.55;;
69998;SDS011;57339;52.156;5.372;2023-10-19T14:36:34;20.58;;;5.22;;
69998;SDS011;57339;52.156;5.372;2023-10-19T14:39:01;22.23;;;5.43;;
69998;SDS011;57339;52.156;5.372;2023-10-19T14:41:28;19.43;;;5.60;;
69998;SDS011;57339;52.156;5.372;2023-10-19T14:43:55;18.08;;;6.32;;
69998;SDS011;57339;52.156;5.372;2023-10-19T14:46:22;18.63;;;6.20;;
69998;SDS011;57339;52.156;5.372;2023-10-19T14:48:49;16.75;;;5.30;;
69998;SDS011;57339;52.156;5.372;2023-10-19T14:51:16;21.00;;;4.57;;
69998;SDS011;57339;52.156;5.372;2023-10-19T14:53:43;19.67;;;5.50;;